Royse City's Hourly Summary for Thursday, March 16, 2017
Hour Temp
(f)
RH
(%)
Solar Rad.
(MJ/m2)
Rainfall
(in)
Wind
(mph)
3/16/2017 12:00 AM 49 67 0 0 1.7
3/16/2017 1:00 AM 50 66 0 0 2.68
3/16/2017 2:00 AM 49 69 0 0 2.12
3/16/2017 3:00 AM 49 72 0 0 2.91
3/16/2017 4:00 AM 49 73 0 0 2.81
3/16/2017 5:00 AM 50 79 0 0 3.3
3/16/2017 6:00 AM 51 84 0 0 2.96
3/16/2017 7:00 AM 54 87 0 0 3.19
3/16/2017 8:00 AM 54 88 0.01 0 2.49
3/16/2017 9:00 AM 54 80 0.08 0.04 2.04
3/16/2017 10:00 AM 55 85 0.22 0 3.08
3/16/2017 11:00 AM 56 81 0.44 0 3.63
3/16/2017 12:00 PM 58 77 0.7 0 3.56
3/16/2017 1:00 PM 61 71 1.1 0 3.93
3/16/2017 2:00 PM 64 68 1.52 0 4.49
3/16/2017 3:00 PM 66 65 1.18 0 4.02
3/16/2017 4:00 PM 69 59 1.44 0 4.93
3/16/2017 5:00 PM 67 68 0.39 0 3.93
3/16/2017 6:00 PM 69 64 0.68 0 5.16
3/16/2017 7:00 PM 70 64 0.34 0 4.64
3/16/2017 8:00 PM 68 66 0.05 0 2.47
3/16/2017 9:00 PM 67 71 0 0 2.82
3/16/2017 10:00 PM 65 75 0 0 3.28
3/16/2017 11:00 PM 65 79 0 0 3.16
Data Summary 58 73 8.15 0.04 3.30